sensor_id;sensor_type;location;lat;lon;timestamp;P1;durP1;ratioP1;P2;durP2;ratioP2
30068;SDS011;16894;49.456;10.644;2022-12-18T00:02:06;95.90;;;29.70;;
30068;SDS011;16894;49.456;10.644;2022-12-18T00:06:57;87.03;;;27.55;;
30068;SDS011;16894;49.456;10.644;2022-12-18T00:09:23;75.07;;;24.60;;
30068;SDS011;16894;49.456;10.644;2022-12-18T00:11:49;71.78;;;26.67;;
30068;SDS011;16894;49.456;10.644;2022-12-18T00:14:15;77.47;;;24.45;;
30068;SDS011;16894;49.456;10.644;2022-12-18T00:16:43;68.93;;;24.98;;
30068;SDS011;16894;49.456;10.644;2022-12-18T00:19:10;68.78;;;23.95;;
30068;SDS011;16894;49.456;10.644;2022-12-18T00:21:36;73.28;;;25.20;;
30068;SDS011;16894;49.456;10.644;2022-12-18T00:24:05;76.53;;;24.77;;
30068;SDS011;16894;49.456;10.644;2022-12-18T00:26:32;91.72;;;26.95;;
30068;SDS011;16894;49.456;10.644;2022-12-18T00:28:59;61.72;;;25.25;;
30068;SDS011;16894;49.456;10.644;2022-12-18T00:31:36;83.78;;;27.77;;
30068;SDS011;16894;49.456;10.644;2022-12-18T00:34:02;77.40;;;26.20;;
30068;SDS011;16894;49.456;10.644;2022-12-18T00:38:56;72.45;;;24.60;;
30068;SDS011;16894;49.456;10.644;2022-12-18T00:41:22;72.90;;;26.50;;
30068;SDS011;16894;49.456;10.644;2022-12-18T00:44:08;68.00;;;25.92;;
30068;SDS011;16894;49.456;10.644;2022-12-18T00:46:36;83.20;;;27.77;;
30068;SDS011;16894;49.456;10.644;2022-12-18T00:51:28;84.60;;;25.73;;
30068;SDS011;16894;49.456;10.644;2022-12-18T00:53:53;58.75;;;21.98;;
30068;SDS011;16894;49.456;10.644;2022-12-18T00:56:19;68.28;;;25.00;;
30068;SDS011;16894;49.456;10.644;2022-12-18T00:58:45;74.32;;;25.15;;
30068;SDS011;16894;49.456;10.644;2022-12-18T01:01:10;75.00;;;26.45;;
30068;SDS011;16894;49.456;10.644;2022-12-18T01:03:36;71.80;;;23.90;;
30068;SDS011;16894;49.456;10.644;2022-12-18T01:08:34;60.60;;;21.90;;
30068;SDS011;16894;49.456;10.644;2022-12-18T01:11:00;58.35;;;21.83;;
30068;SDS011;16894;49.456;10.644;2022-12-18T01:13:31;63.53;;;24.00;;
30068;SDS011;16894;49.456;10.644;2022-12-18T01:15:57;72.18;;;25.13;;
30068;SDS011;16894;49.456;10.644;2022-12-18T01:18:22;72.57;;;23.83;;
30068;SDS011;16894;49.456;10.644;2022-12-18T01:20:48;69.18;;;25.25;;
30068;SDS011;16894;49.456;10.644;2022-12-18T01:23:14;82.70;;;25.00;;
30068;SDS011;16894;49.456;10.644;2022-12-18T01:25:39;70.97;;;27.17;;
30068;SDS011;16894;49.456;10.644;2022-12-18T01:28:05;84.15;;;26.20;;
30068;SDS011;16894;49.456;10.644;2022-12-18T01:30:30;81.32;;;26.10;;
30068;SDS011;16894;49.456;10.644;2022-12-18T01:32:56;60.38;;;23.63;;
30068;SDS011;16894;49.456;10.644;2022-12-18T01:35:22;75.78;;;23.42;;
30068;SDS011;16894;49.456;10.644;2022-12-18T01:37:48;68.82;;;23.20;;
30068;SDS011;16894;49.456;10.644;2022-12-18T01:40:13;71.53;;;25.85;;
30068;SDS011;16894;49.456;10.644;2022-12-18T01:42:39;68.57;;;23.75;;
30068;SDS011;16894;49.456;10.644;2022-12-18T01:50:11;59.60;;;21.77;;
30068;SDS011;16894;49.456;10.644;2022-12-18T01:52:42;55.00;;;21.80;;
30068;SDS011;16894;49.456;10.644;2022-12-18T01:55:09;77.95;;;25.88;;
30068;SDS011;16894;49.456;10.644;2022-12-18T01:57:37;49.35;;;20.85;;
30068;SDS011;16894;49.456;10.644;2022-12-18T02:00:06;67.72;;;25.00;;
30068;SDS011;16894;49.456;10.644;2022-12-18T02:02:34;68.47;;;23.63;;
30068;SDS011;16894;49.456;10.644;2022-12-18T02:10:11;82.28;;;28.70;;
30068;SDS011;16894;49.456;10.644;2022-12-18T02:12:43;70.80;;;26.70;;
30068;SDS011;16894;49.456;10.644;2022-12-18T02:15:16;64.55;;;22.40;;
30068;SDS011;16894;49.456;10.644;2022-12-18T02:17:53;79.32;;;26.35;;
30068;SDS011;16894;49.456;10.644;2022-12-18T02:23:09;76.35;;;26.38;;
30068;SDS011;16894;49.456;10.644;2022-12-18T02:28:18;79.50;;;29.10;;
30068;SDS011;16894;49.456;10.644;2022-12-18T02:30:47;66.20;;;26.15;;
30068;SDS011;16894;49.456;10.644;2022-12-18T02:33:15;61.40;;;24.35;;
30068;SDS011;16894;49.456;10.644;2022-12-18T02:35:44;70.28;;;28.17;;
30068;SDS011;16894;49.456;10.644;2022-12-18T02:38:12;73.95;;;26.98;;
30068;SDS011;16894;49.456;10.644;2022-12-18T02:40:39;75.63;;;25.00;;
30068;SDS011;16894;49.456;10.644;2022-12-18T02:43:11;69.13;;;25.05;;
30068;SDS011;16894;49.456;10.644;2022-12-18T02:45:45;63.05;;;22.98;;
30068;SDS011;16894;49.456;10.644;2022-12-18T02:48:17;64.28;;;23.10;;
30068;SDS011;16894;49.456;10.644;2022-12-18T02:50:49;68.03;;;25.77;;
30068;SDS011;16894;49.456;10.644;2022-12-18T02:53:35;72.63;;;25.83;;
30068;SDS011;16894;49.456;10.644;2022-12-18T02:56:12;63.92;;;23.58;;
30068;SDS011;16894;49.456;10.644;2022-12-18T02:58:57;72.97;;;26.85;;
30068;SDS011;16894;49.456;10.644;2022-12-18T03:04:18;76.28;;;27.23;;
30068;SDS011;16894;49.456;10.644;2022-12-18T03:06:56;74.88;;;26.42;;
30068;SDS011;16894;49.456;10.644;2022-12-18T03:09:29;96.63;;;30.45;;
30068;SDS011;16894;49.456;10.644;2022-12-18T03:12:10;88.55;;;26.65;;
30068;SDS011;16894;49.456;10.644;2022-12-18T03:17:36;70.13;;;25.55;;
30068;SDS011;16894;49.456;10.644;2022-12-18T03:20:06;64.85;;;24.10;;
30068;SDS011;16894;49.456;10.644;2022-12-18T03:22:38;63.65;;;24.60;;
30068;SDS011;16894;49.456;10.644;2022-12-18T03:25:06;99.40;;;29.13;;
30068;SDS011;16894;49.456;10.644;2022-12-18T03:27:35;95.88;;;28.35;;
30068;SDS011;16894;49.456;10.644;2022-12-18T03:30:06;76.35;;;27.75;;
30068;SDS011;16894;49.456;10.644;2022-12-18T03:32:46;75.00;;;27.75;;
30068;SDS011;16894;49.456;10.644;2022-12-18T03:35:18;73.68;;;25.90;;
30068;SDS011;16894;49.456;10.644;2022-12-18T03:37:54;78.63;;;27.77;;
30068;SDS011;16894;49.456;10.644;2022-12-18T03:42:51;76.22;;;27.98;;
30068;SDS011;16894;49.456;10.644;2022-12-18T03:45:27;74.53;;;26.38;;
30068;SDS011;16894;49.456;10.644;2022-12-18T03:48:08;80.32;;;26.77;;
30068;SDS011;16894;49.456;10.644;2022-12-18T03:50:47;78.18;;;27.38;;
30068;SDS011;16894;49.456;10.644;2022-12-18T03:53:40;86.47;;;27.95;;
30068;SDS011;16894;49.456;10.644;2022-12-18T03:56:22;83.72;;;27.08;;
30068;SDS011;16894;49.456;10.644;2022-12-18T03:58:53;81.95;;;27.73;;
30068;SDS011;16894;49.456;10.644;2022-12-18T04:01:29;73.30;;;26.42;;
30068;SDS011;16894;49.456;10.644;2022-12-18T04:03:59;94.93;;;29.30;;
30068;SDS011;16894;49.456;10.644;2022-12-18T04:06:45;94.53;;;30.02;;
30068;SDS011;16894;49.456;10.644;2022-12-18T04:09:45;81.20;;;28.20;;
30068;SDS011;16894;49.456;10.644;2022-12-18T04:12:29;91.82;;;31.20;;
30068;SDS011;16894;49.456;10.644;2022-12-18T04:15:02;89.70;;;34.25;;
30068;SDS011;16894;49.456;10.644;2022-12-18T04:19:54;95.40;;;29.13;;
30068;SDS011;16894;49.456;10.644;2022-12-18T04:22:19;86.80;;;32.13;;
30068;SDS011;16894;49.456;10.644;2022-12-18T04:24:45;90.43;;;33.15;;
30068;SDS011;16894;49.456;10.644;2022-12-18T04:27:11;97.13;;;34.33;;
30068;SDS011;16894;49.456;10.644;2022-12-18T04:29:36;88.40;;;32.28;;
30068;SDS011;16894;49.456;10.644;2022-12-18T04:32:02;100.53;;;33.35;;
30068;SDS011;16894;49.456;10.644;2022-12-18T04:34:27;91.50;;;31.52;;
30068;SDS011;16894;49.456;10.644;2022-12-18T04:36:53;98.97;;;34.80;;
30068;SDS011;16894;49.456;10.644;2022-12-18T04:39:18;95.80;;;33.10;;
30068;SDS011;16894;49.456;10.644;2022-12-18T04:41:44;93.55;;;34.35;;
30068;SDS011;16894;49.456;10.644;2022-12-18T04:44:10;96.82;;;34.25;;
30068;SDS011;16894;49.456;10.644;2022-12-18T04:46:36;95.88;;;34.03;;
30068;SDS011;16894;49.456;10.644;2022-12-18T04:49:02;96.90;;;33.00;;
30068;SDS011;16894;49.456;10.644;2022-12-18T04:51:27;89.38;;;34.25;;
30068;SDS011;16894;49.456;10.644;2022-12-18T04:53:53;95.80;;;34.30;;
30068;SDS011;16894;49.456;10.644;2022-12-18T04:56:19;101.43;;;35.95;;
30068;SDS011;16894;49.456;10.644;2022-12-18T04:58:45;88.78;;;35.20;;
30068;SDS011;16894;49.456;10.644;2022-12-18T05:01:11;95.90;;;32.88;;
30068;SDS011;16894;49.456;10.644;2022-12-18T05:03:38;94.18;;;33.65;;
30068;SDS011;16894;49.456;10.644;2022-12-18T05:06:04;86.70;;;32.78;;
30068;SDS011;16894;49.456;10.644;2022-12-18T05:08:31;112.50;;;34.97;;
30068;SDS011;16894;49.456;10.644;2022-12-18T05:13:26;102.90;;;32.15;;
30068;SDS011;16894;49.456;10.644;2022-12-18T05:15:53;86.18;;;31.15;;
30068;SDS011;16894;49.456;10.644;2022-12-18T05:18:19;99.75;;;33.70;;
30068;SDS011;16894;49.456;10.644;2022-12-18T05:20:45;102.75;;;31.73;;
30068;SDS011;16894;49.456;10.644;2022-12-18T05:23:10;94.70;;;30.90;;
30068;SDS011;16894;49.456;10.644;2022-12-18T05:25:36;81.38;;;28.85;;
30068;SDS011;16894;49.456;10.644;2022-12-18T05:28:02;91.65;;;30.30;;
30068;SDS011;16894;49.456;10.644;2022-12-18T05:30:27;95.65;;;29.15;;
30068;SDS011;16894;49.456;10.644;2022-12-18T05:32:53;92.68;;;31.88;;
30068;SDS011;16894;49.456;10.644;2022-12-18T05:35:19;100.90;;;33.35;;
30068;SDS011;16894;49.456;10.644;2022-12-18T05:37:44;99.43;;;32.17;;
30068;SDS011;16894;49.456;10.644;2022-12-18T05:40:10;90.97;;;37.08;;
30068;SDS011;16894;49.456;10.644;2022-12-18T05:42:36;95.13;;;29.27;;
30068;SDS011;16894;49.456;10.644;2022-12-18T05:45:02;91.35;;;30.45;;
30068;SDS011;16894;49.456;10.644;2022-12-18T05:47:29;85.97;;;31.80;;
30068;SDS011;16894;49.456;10.644;2022-12-18T05:49:54;93.50;;;32.75;;
30068;SDS011;16894;49.456;10.644;2022-12-18T05:52:20;98.57;;;29.38;;
30068;SDS011;16894;49.456;10.644;2022-12-18T05:54:45;93.22;;;29.27;;
30068;SDS011;16894;49.456;10.644;2022-12-18T05:57:11;103.00;;;31.02;;
30068;SDS011;16894;49.456;10.644;2022-12-18T05:59:37;77.18;;;27.25;;
30068;SDS011;16894;49.456;10.644;2022-12-18T06:02:02;90.70;;;29.67;;
30068;SDS011;16894;49.456;10.644;2022-12-18T06:04:28;85.85;;;31.35;;
30068;SDS011;16894;49.456;10.644;2022-12-18T06:06:54;88.90;;;29.75;;
30068;SDS011;16894;49.456;10.644;2022-12-18T06:09:19;87.07;;;30.85;;
30068;SDS011;16894;49.456;10.644;2022-12-18T06:11:45;81.65;;;32.10;;
30068;SDS011;16894;49.456;10.644;2022-12-18T06:14:11;93.30;;;33.63;;
30068;SDS011;16894;49.456;10.644;2022-12-18T06:16:36;75.35;;;27.15;;
30068;SDS011;16894;49.456;10.644;2022-12-18T06:19:03;85.90;;;28.67;;
30068;SDS011;16894;49.456;10.644;2022-12-18T06:21:30;81.15;;;28.73;;
30068;SDS011;16894;49.456;10.644;2022-12-18T06:23:56;84.35;;;28.25;;
30068;SDS011;16894;49.456;10.644;2022-12-18T06:26:22;77.07;;;28.73;;
30068;SDS011;16894;49.456;10.644;2022-12-18T06:31:14;75.05;;;25.63;;
30068;SDS011;16894;49.456;10.644;2022-12-18T06:33:40;84.22;;;27.25;;
30068;SDS011;16894;49.456;10.644;2022-12-18T06:36:10;89.10;;;32.13;;
30068;SDS011;16894;49.456;10.644;2022-12-18T06:38:38;80.30;;;29.25;;
30068;SDS011;16894;49.456;10.644;2022-12-18T06:41:09;96.68;;;32.65;;
30068;SDS011;16894;49.456;10.644;2022-12-18T06:43:36;89.25;;;27.40;;
30068;SDS011;16894;49.456;10.644;2022-12-18T06:46:02;79.18;;;28.70;;
30068;SDS011;16894;49.456;10.644;2022-12-18T06:48:29;94.65;;;31.65;;
30068;SDS011;16894;49.456;10.644;2022-12-18T06:53:21;82.30;;;27.17;;
30068;SDS011;16894;49.456;10.644;2022-12-18T06:55:46;96.60;;;30.23;;
30068;SDS011;16894;49.456;10.644;2022-12-18T06:58:12;91.63;;;34.30;;
30068;SDS011;16894;49.456;10.644;2022-12-18T07:00:38;85.25;;;30.65;;
30068;SDS011;16894;49.456;10.644;2022-12-18T07:03:03;85.13;;;29.35;;
30068;SDS011;16894;49.456;10.644;2022-12-18T07:05:29;76.97;;;28.15;;
30068;SDS011;16894;49.456;10.644;2022-12-18T07:07:55;78.15;;;27.42;;
30068;SDS011;16894;49.456;10.644;2022-12-18T07:10:20;79.68;;;28.98;;
30068;SDS011;16894;49.456;10.644;2022-12-18T07:12:46;88.28;;;29.13;;
30068;SDS011;16894;49.456;10.644;2022-12-18T07:15:12;74.68;;;28.45;;
30068;SDS011;16894;49.456;10.644;2022-12-18T07:17:38;77.07;;;26.52;;
30068;SDS011;16894;49.456;10.644;2022-12-18T07:20:03;87.90;;;29.75;;
30068;SDS011;16894;49.456;10.644;2022-12-18T07:22:29;81.40;;;27.85;;
30068;SDS011;16894;49.456;10.644;2022-12-18T07:24:55;81.80;;;27.27;;
30068;SDS011;16894;49.456;10.644;2022-12-18T07:27:21;77.88;;;25.80;;
30068;SDS011;16894;49.456;10.644;2022-12-18T07:29:47;72.93;;;26.80;;
30068;SDS011;16894;49.456;10.644;2022-12-18T07:32:12;64.18;;;24.20;;
30068;SDS011;16894;49.456;10.644;2022-12-18T07:34:38;77.57;;;29.10;;
30068;SDS011;16894;49.456;10.644;2022-12-18T07:37:04;78.75;;;27.02;;
30068;SDS011;16894;49.456;10.644;2022-12-18T07:39:29;86.53;;;30.42;;
30068;SDS011;16894;49.456;10.644;2022-12-18T07:41:55;75.05;;;28.05;;
30068;SDS011;16894;49.456;10.644;2022-12-18T07:44:39;76.05;;;25.60;;
30068;SDS011;16894;49.456;10.644;2022-12-18T07:47:05;72.50;;;26.70;;
30068;SDS011;16894;49.456;10.644;2022-12-18T07:49:31;80.63;;;32.78;;
30068;SDS011;16894;49.456;10.644;2022-12-18T07:51:56;79.05;;;29.05;;
30068;SDS011;16894;49.456;10.644;2022-12-18T07:54:23;72.88;;;24.65;;
30068;SDS011;16894;49.456;10.644;2022-12-18T07:56:49;72.18;;;25.30;;
30068;SDS011;16894;49.456;10.644;2022-12-18T07:59:15;70.28;;;25.48;;
30068;SDS011;16894;49.456;10.644;2022-12-18T08:01:41;132.55;;;41.78;;
30068;SDS011;16894;49.456;10.644;2022-12-18T08:04:07;184.95;;;61.92;;
30068;SDS011;16894;49.456;10.644;2022-12-18T08:06:32;89.90;;;30.80;;
30068;SDS011;16894;49.456;10.644;2022-12-18T08:08:58;77.32;;;28.67;;
30068;SDS011;16894;49.456;10.644;2022-12-18T08:11:24;79.53;;;29.83;;
30068;SDS011;16894;49.456;10.644;2022-12-18T08:13:53;79.88;;;28.77;;
30068;SDS011;16894;49.456;10.644;2022-12-18T08:16:19;67.25;;;25.77;;
30068;SDS011;16894;49.456;10.644;2022-12-18T08:18:46;83.20;;;32.75;;
30068;SDS011;16894;49.456;10.644;2022-12-18T08:23:43;99.25;;;33.80;;
30068;SDS011;16894;49.456;10.644;2022-12-18T08:26:13;81.90;;;28.60;;
30068;SDS011;16894;49.456;10.644;2022-12-18T08:28:39;69.32;;;24.73;;
30068;SDS011;16894;49.456;10.644;2022-12-18T08:33:31;86.15;;;30.30;;
30068;SDS011;16894;49.456;10.644;2022-12-18T08:35:58;69.82;;;25.35;;
30068;SDS011;16894;49.456;10.644;2022-12-18T08:38:24;65.72;;;27.00;;
30068;SDS011;16894;49.456;10.644;2022-12-18T08:40:53;76.20;;;29.40;;
30068;SDS011;16894;49.456;10.644;2022-12-18T08:43:25;71.23;;;27.80;;
30068;SDS011;16894;49.456;10.644;2022-12-18T08:46:10;122.13;;;36.78;;
30068;SDS011;16894;49.456;10.644;2022-12-18T08:48:36;69.80;;;37.95;;
30068;SDS011;16894;49.456;10.644;2022-12-18T08:51:02;69.45;;;24.33;;
30068;SDS011;16894;49.456;10.644;2022-12-18T08:53:28;79.55;;;31.85;;
30068;SDS011;16894;49.456;10.644;2022-12-18T08:55:53;76.53;;;29.23;;
30068;SDS011;16894;49.456;10.644;2022-12-18T08:58:20;74.40;;;30.52;;
30068;SDS011;16894;49.456;10.644;2022-12-18T09:00:46;76.43;;;29.60;;
30068;SDS011;16894;49.456;10.644;2022-12-18T09:03:13;65.25;;;27.67;;
30068;SDS011;16894;49.456;10.644;2022-12-18T09:05:39;70.45;;;27.15;;
30068;SDS011;16894;49.456;10.644;2022-12-18T09:08:05;67.63;;;23.85;;
30068;SDS011;16894;49.456;10.644;2022-12-18T09:10:30;62.72;;;24.60;;
30068;SDS011;16894;49.456;10.644;2022-12-18T09:12:56;78.45;;;29.30;;
30068;SDS011;16894;49.456;10.644;2022-12-18T09:15:22;64.15;;;24.60;;
30068;SDS011;16894;49.456;10.644;2022-12-18T09:17:48;66.50;;;27.48;;
30068;SDS011;16894;49.456;10.644;2022-12-18T09:22:41;69.43;;;25.63;;
30068;SDS011;16894;49.456;10.644;2022-12-18T09:25:07;66.00;;;24.67;;
30068;SDS011;16894;49.456;10.644;2022-12-18T09:27:33;70.35;;;24.85;;
30068;SDS011;16894;49.456;10.644;2022-12-18T09:29:59;59.45;;;22.25;;
30068;SDS011;16894;49.456;10.644;2022-12-18T09:32:25;63.60;;;23.98;;
30068;SDS011;16894;49.456;10.644;2022-12-18T09:34:51;62.15;;;23.90;;
30068;SDS011;16894;49.456;10.644;2022-12-18T09:37:16;62.08;;;24.67;;
30068;SDS011;16894;49.456;10.644;2022-12-18T09:39:42;62.50;;;23.35;;
30068;SDS011;16894;49.456;10.644;2022-12-18T09:42:19;64.88;;;24.23;;
30068;SDS011;16894;49.456;10.644;2022-12-18T09:44:48;69.38;;;38.22;;
30068;SDS011;16894;49.456;10.644;2022-12-18T09:47:18;60.65;;;26.10;;
30068;SDS011;16894;49.456;10.644;2022-12-18T09:49:53;65.72;;;21.75;;
30068;SDS011;16894;49.456;10.644;2022-12-18T09:54:53;67.82;;;22.50;;
30068;SDS011;16894;49.456;10.644;2022-12-18T09:57:25;68.72;;;25.52;;
30068;SDS011;16894;49.456;10.644;2022-12-18T09:59:59;52.50;;;21.17;;
30068;SDS011;16894;49.456;10.644;2022-12-18T10:02:47;55.10;;;21.90;;
30068;SDS011;16894;49.456;10.644;2022-12-18T10:05:16;62.60;;;23.25;;
30068;SDS011;16894;49.456;10.644;2022-12-18T10:10:45;58.22;;;21.58;;
30068;SDS011;16894;49.456;10.644;2022-12-18T10:13:21;119.38;;;42.80;;
30068;SDS011;16894;49.456;10.644;2022-12-18T10:21:59;50.67;;;22.40;;
30068;SDS011;16894;49.456;10.644;2022-12-18T10:27:12;61.22;;;22.08;;
30068;SDS011;16894;49.456;10.644;2022-12-18T10:29:41;60.13;;;24.20;;
30068;SDS011;16894;49.456;10.644;2022-12-18T10:32:12;55.88;;;22.17;;
30068;SDS011;16894;49.456;10.644;2022-12-18T10:34:40;50.42;;;20.23;;
30068;SDS011;16894;49.456;10.644;2022-12-18T10:37:06;61.60;;;22.98;;
30068;SDS011;16894;49.456;10.644;2022-12-18T10:39:40;53.47;;;19.92;;
30068;SDS011;16894;49.456;10.644;2022-12-18T10:42:17;51.60;;;20.77;;
30068;SDS011;16894;49.456;10.644;2022-12-18T10:44:44;58.35;;;21.17;;
30068;SDS011;16894;49.456;10.644;2022-12-18T10:47:17;55.47;;;19.83;;
30068;SDS011;16894;49.456;10.644;2022-12-18T10:49:50;53.20;;;22.30;;
30068;SDS011;16894;49.456;10.644;2022-12-18T10:52:24;52.30;;;20.85;;
30068;SDS011;16894;49.456;10.644;2022-12-18T10:54:58;54.33;;;22.30;;
30068;SDS011;16894;49.456;10.644;2022-12-18T10:59:57;52.28;;;19.75;;
30068;SDS011;16894;49.456;10.644;2022-12-18T11:02:33;40.53;;;17.35;;
30068;SDS011;16894;49.456;10.644;2022-12-18T11:05:01;55.15;;;20.02;;
30068;SDS011;16894;49.456;10.644;2022-12-18T11:07:47;43.13;;;18.63;;
30068;SDS011;16894;49.456;10.644;2022-12-18T11:10:16;59.78;;;21.15;;
30068;SDS011;16894;49.456;10.644;2022-12-18T11:12:43;50.85;;;19.88;;
30068;SDS011;16894;49.456;10.644;2022-12-18T11:15:42;44.58;;;19.35;;
30068;SDS011;16894;49.456;10.644;2022-12-18T11:18:01;49.38;;;20.17;;
30068;SDS011;16894;49.456;10.644;2022-12-18T11:23:05;51.35;;;19.17;;
30068;SDS011;16894;49.456;10.644;2022-12-18T11:25:37;49.97;;;19.65;;
30068;SDS011;16894;49.456;10.644;2022-12-18T11:31:08;46.30;;;20.17;;
30068;SDS011;16894;49.456;10.644;2022-12-18T11:36:19;53.35;;;20.27;;
30068;SDS011;16894;49.456;10.644;2022-12-18T11:38:46;42.05;;;18.30;;
30068;SDS011;16894;49.456;10.644;2022-12-18T11:41:16;44.70;;;20.42;;
30068;SDS011;16894;49.456;10.644;2022-12-18T11:44:14;43.25;;;19.38;;
30068;SDS011;16894;49.456;10.644;2022-12-18T11:46:51;44.53;;;18.55;;
30068;SDS011;16894;49.456;10.644;2022-12-18T11:49:25;44.25;;;18.23;;
30068;SDS011;16894;49.456;10.644;2022-12-18T11:54:28;51.28;;;21.02;;
30068;SDS011;16894;49.456;10.644;2022-12-18T11:56:56;45.23;;;17.77;;
30068;SDS011;16894;49.456;10.644;2022-12-18T12:05:06;46.50;;;22.02;;
30068;SDS011;16894;49.456;10.644;2022-12-18T12:11:00;55.30;;;23.33;;
30068;SDS011;16894;49.456;10.644;2022-12-18T12:21:33;51.80;;;20.95;;
30068;SDS011;16894;49.456;10.644;2022-12-18T12:35:42;52.90;;;20.60;;
30068;SDS011;16894;49.456;10.644;2022-12-18T12:38:20;42.83;;;19.27;;
30068;SDS011;16894;49.456;10.644;2022-12-18T12:41:23;44.50;;;20.15;;
30068;SDS011;16894;49.456;10.644;2022-12-18T12:44:14;119.65;;;37.33;;
30068;SDS011;16894;49.456;10.644;2022-12-18T12:46:47;46.35;;;18.98;;
30068;SDS011;16894;49.456;10.644;2022-12-18T12:49:15;66.35;;;26.98;;
30068;SDS011;16894;49.456;10.644;2022-12-18T12:51:44;49.78;;;20.33;;
30068;SDS011;16894;49.456;10.644;2022-12-18T12:54:21;48.65;;;18.27;;
30068;SDS011;16894;49.456;10.644;2022-12-18T13:05:37;46.38;;;22.35;;
30068;SDS011;16894;49.456;10.644;2022-12-18T13:10:51;74.47;;;32.05;;
30068;SDS011;16894;49.456;10.644;2022-12-18T13:13:48;98.80;;;34.15;;
30068;SDS011;16894;49.456;10.644;2022-12-18T13:16:17;76.03;;;31.83;;
30068;SDS011;16894;49.456;10.644;2022-12-18T13:18:51;91.10;;;32.35;;
30068;SDS011;16894;49.456;10.644;2022-12-18T13:21:30;70.28;;;26.73;;
30068;SDS011;16894;49.456;10.644;2022-12-18T13:24:14;52.70;;;22.08;;
30068;SDS011;16894;49.456;10.644;2022-12-18T13:26:45;48.45;;;19.83;;
30068;SDS011;16894;49.456;10.644;2022-12-18T13:29:10;43.80;;;20.23;;
30068;SDS011;16894;49.456;10.644;2022-12-18T13:34:24;52.22;;;22.30;;
30068;SDS011;16894;49.456;10.644;2022-12-18T13:36:50;49.00;;;21.27;;
30068;SDS011;16894;49.456;10.644;2022-12-18T13:39:21;59.15;;;23.50;;
30068;SDS011;16894;49.456;10.644;2022-12-18T13:44:32;41.88;;;18.13;;
30068;SDS011;16894;49.456;10.644;2022-12-18T13:47:03;55.33;;;19.63;;
30068;SDS011;16894;49.456;10.644;2022-12-18T13:52:15;52.97;;;21.33;;
30068;SDS011;16894;49.456;10.644;2022-12-18T13:54:54;57.92;;;21.17;;
30068;SDS011;16894;49.456;10.644;2022-12-18T13:57:28;47.75;;;21.00;;
30068;SDS011;16894;49.456;10.644;2022-12-18T14:02:47;63.70;;;23.38;;
30068;SDS011;16894;49.456;10.644;2022-12-18T14:05:29;49.13;;;20.77;;
30068;SDS011;16894;49.456;10.644;2022-12-18T14:08:04;54.95;;;22.77;;
30068;SDS011;16894;49.456;10.644;2022-12-18T14:10:33;46.35;;;20.13;;
30068;SDS011;16894;49.456;10.644;2022-12-18T14:13:01;51.47;;;22.15;;
30068;SDS011;16894;49.456;10.644;2022-12-18T14:15:31;66.65;;;23.35;;
30068;SDS011;16894;49.456;10.644;2022-12-18T14:18:00;55.63;;;22.17;;
30068;SDS011;16894;49.456;10.644;2022-12-18T14:20:31;52.85;;;21.92;;
30068;SDS011;16894;49.456;10.644;2022-12-18T14:22:58;53.38;;;22.10;;
30068;SDS011;16894;49.456;10.644;2022-12-18T14:25:28;54.00;;;21.10;;
30068;SDS011;16894;49.456;10.644;2022-12-18T14:28:04;58.72;;;22.98;;
30068;SDS011;16894;49.456;10.644;2022-12-18T14:30:39;65.90;;;26.08;;
30068;SDS011;16894;49.456;10.644;2022-12-18T14:33:22;56.90;;;22.13;;
30068;SDS011;16894;49.456;10.644;2022-12-18T14:36:00;50.25;;;21.67;;
30068;SDS011;16894;49.456;10.644;2022-12-18T14:38:29;52.78;;;20.30;;
30068;SDS011;16894;49.456;10.644;2022-12-18T14:41:04;46.92;;;22.02;;
30068;SDS011;16894;49.456;10.644;2022-12-18T14:43:36;53.80;;;22.02;;
30068;SDS011;16894;49.456;10.644;2022-12-18T14:49:04;55.60;;;23.40;;
30068;SDS011;16894;49.456;10.644;2022-12-18T14:51:49;61.30;;;24.17;;
30068;SDS011;16894;49.456;10.644;2022-12-18T14:54:19;63.63;;;24.60;;
30068;SDS011;16894;49.456;10.644;2022-12-18T14:56:47;58.60;;;24.20;;
30068;SDS011;16894;49.456;10.644;2022-12-18T14:59:22;53.25;;;22.48;;
30068;SDS011;16894;49.456;10.644;2022-12-18T15:09:39;71.57;;;25.60;;
30068;SDS011;16894;49.456;10.644;2022-12-18T15:12:19;64.40;;;24.25;;
30068;SDS011;16894;49.456;10.644;2022-12-18T15:14:50;67.30;;;26.52;;
30068;SDS011;16894;49.456;10.644;2022-12-18T15:17:21;73.93;;;27.65;;
30068;SDS011;16894;49.456;10.644;2022-12-18T15:19:48;65.68;;;25.30;;
30068;SDS011;16894;49.456;10.644;2022-12-18T15:24:47;74.28;;;27.75;;
30068;SDS011;16894;49.456;10.644;2022-12-18T15:27:24;68.97;;;26.90;;
30068;SDS011;16894;49.456;10.644;2022-12-18T15:32:37;57.72;;;24.38;;
30068;SDS011;16894;49.456;10.644;2022-12-18T15:37:36;67.25;;;25.67;;
30068;SDS011;16894;49.456;10.644;2022-12-18T15:40:03;66.03;;;23.85;;
30068;SDS011;16894;49.456;10.644;2022-12-18T15:45:13;66.45;;;23.65;;
30068;SDS011;16894;49.456;10.644;2022-12-18T15:47:39;77.20;;;28.63;;
30068;SDS011;16894;49.456;10.644;2022-12-18T15:50:07;75.05;;;29.92;;
30068;SDS011;16894;49.456;10.644;2022-12-18T15:52:36;80.13;;;28.83;;
30068;SDS011;16894;49.456;10.644;2022-12-18T15:55:10;87.20;;;32.78;;
30068;SDS011;16894;49.456;10.644;2022-12-18T15:57:57;90.72;;;33.10;;
30068;SDS011;16894;49.456;10.644;2022-12-18T16:00:23;165.43;;;56.83;;
30068;SDS011;16894;49.456;10.644;2022-12-18T16:02:49;91.30;;;36.78;;
30068;SDS011;16894;49.456;10.644;2022-12-18T16:05:15;71.22;;;30.38;;
30068;SDS011;16894;49.456;10.644;2022-12-18T16:07:42;77.32;;;29.10;;
30068;SDS011;16894;49.456;10.644;2022-12-18T16:10:08;69.43;;;27.02;;
30068;SDS011;16894;49.456;10.644;2022-12-18T16:12:34;97.15;;;36.28;;
30068;SDS011;16894;49.456;10.644;2022-12-18T16:15:00;87.78;;;33.45;;
30068;SDS011;16894;49.456;10.644;2022-12-18T16:17:27;77.25;;;29.98;;
30068;SDS011;16894;49.456;10.644;2022-12-18T16:19:52;96.82;;;31.95;;
30068;SDS011;16894;49.456;10.644;2022-12-18T16:27:12;80.10;;;28.73;;
30068;SDS011;16894;49.456;10.644;2022-12-18T16:29:37;81.75;;;31.15;;
30068;SDS011;16894;49.456;10.644;2022-12-18T16:32:03;74.68;;;29.88;;
30068;SDS011;16894;49.456;10.644;2022-12-18T16:34:30;78.30;;;30.50;;
30068;SDS011;16894;49.456;10.644;2022-12-18T16:36:59;73.25;;;29.10;;
30068;SDS011;16894;49.456;10.644;2022-12-18T16:39:26;69.25;;;29.55;;
30068;SDS011;16894;49.456;10.644;2022-12-18T16:41:52;76.03;;;30.90;;
30068;SDS011;16894;49.456;10.644;2022-12-18T16:44:18;79.50;;;30.65;;
30068;SDS011;16894;49.456;10.644;2022-12-18T16:49:11;76.32;;;28.52;;
30068;SDS011;16894;49.456;10.644;2022-12-18T16:51:40;80.57;;;30.65;;
30068;SDS011;16894;49.456;10.644;2022-12-18T16:54:06;86.07;;;33.60;;
30068;SDS011;16894;49.456;10.644;2022-12-18T16:56:32;75.80;;;28.55;;
30068;SDS011;16894;49.456;10.644;2022-12-18T16:58:58;90.40;;;32.83;;
30068;SDS011;16894;49.456;10.644;2022-12-18T17:01:25;80.00;;;31.30;;